Juan De La Cosa — ECJE — position and weather

sailwx.info

Track history (hours):
 
Tides and Currents Weather Stations Pressure Air Temp Water Temp Dewpoint Dewpoint Depression Visibility Wind Speed Wind Dir Waves Ship Positions

Juan De La Cosa

Last reported at 2016-Jul-24 03:27 UTC. Time now 2016-Jul-24 04:52 UTC.
Position N 45°48' W 006°06'.

Length 75 m.

Type: SAR. MMSI: 224612000.

Date/timePositionNaut miles runAvg speedWind from/ knotsBaromVisibWave heightAir tempDewpointWater temp
2016-Jul-24 03:27N 45°48' W 006°06'10 8.6
2016-Jul-24 02:18N 45°53' W 006°18'7 8.9
2016-Jul-24 01:33N 45°56' W 006°26'11 8.7
2016-Jul-24 00:18N 46°02' W 006°40'6 8.4
2016-Jul-23 23:33N 46°05' W 006°48'  
2016-Jul-17 06:33N 47°10' W 008°46'67 6.1
2016-Jul-16 19:32N 47°47' W 010°08'6 6.3
2016-Jul-16 18:33N 47°50' W 010°16'9 2.9
2016-Jul-16 15:34N 47°57' W 010°24'2 1.9
2016-Jul-16 14:33N 47°59' W 010°23'6 1.4
2016-Jul-16 10:20N 47°57' W 010°31'4 5.2
2016-Jul-16 09:31N 47°60' W 010°35'3 3.4
2016-Jul-16 08:30N 48°03' W 010°36'9 6.4
2016-Jul-16 07:08N 47°55' W 010°31'1 1.3
2016-Jul-16 06:30N 47°54' W 010°31'  
Track history (hours):
 
Tides and Currents Weather Stations Pressure Air Temp Water Temp Dewpoint Dewpoint Depression Visibility Wind Speed Wind Dir Waves Ship Positions

Juan De La Cosa

Last reported at 2016-Jul-24 03:27 UTC. Time now 2016-Jul-24 04:52 UTC.
Position N 45°48' W 006°06'.

Length 75 m.

Type: SAR. MMSI: 224612000.

Date/timePositionNaut miles runAvg speedWind from/ knotsBaromVisibWave heightAir tempDewpointWater temp
2016-Jul-24 03:27N 45°48' W 006°06'10 8.6
2016-Jul-24 02:18N 45°53' W 006°18'7 8.9
2016-Jul-24 01:33N 45°56' W 006°26'11 8.7
2016-Jul-24 00:18N 46°02' W 006°40'6 8.4
2016-Jul-23 23:33N 46°05' W 006°48'  
2016-Jul-17 06:33N 47°10' W 008°46'67 6.1
2016-Jul-16 19:32N 47°47' W 010°08'6 6.3
2016-Jul-16 18:33N 47°50' W 010°16'9 2.9
2016-Jul-16 15:34N 47°57' W 010°24'2 1.9
2016-Jul-16 14:33N 47°59' W 010°23'6 1.4
2016-Jul-16 10:20N 47°57' W 010°31'4 5.2
2016-Jul-16 09:31N 47°60' W 010°35'3 3.4
2016-Jul-16 08:30N 48°03' W 010°36'9 6.4
2016-Jul-16 07:08N 47°55' W 010°31'1 1.3
2016-Jul-16 06:30N 47°54' W 010°31'  

Dump ship's entire track history